createdAt,value
2016-07-09T00:00:14.296Z,58.25
2016-07-09T00:01:14.308Z,58.15
2016-07-09T00:02:14.335Z,58.25
2016-07-09T00:03:14.316Z,58.25
2016-07-09T00:04:14.329Z,58.25
2016-07-09T00:05:14.353Z,58.15
2016-07-09T00:06:14.338Z,58.35
2016-07-09T00:07:14.350Z,58.25
2016-07-09T00:08:14.387Z,58.25
2016-07-09T00:09:14.388Z,58.25
2016-07-09T00:10:14.392Z,58.15
2016-07-09T00:11:14.423Z,58.15
2016-07-09T00:12:14.429Z,58.15
2016-07-09T00:13:14.456Z,58.25
2016-07-09T00:14:14.415Z,58.35
2016-07-09T00:15:14.422Z,58.25
2016-07-09T00:16:14.461Z,58.25
2016-07-09T00:17:14.442Z,58.25
2016-07-09T00:18:14.473Z,58.15
2016-07-09T00:19:14.479Z,58.15
2016-07-09T00:20:14.504Z,58.25
2016-07-09T00:21:14.501Z,58.25
2016-07-09T00:22:14.492Z,58.25
2016-07-09T00:23:14.507Z,58.25
2016-07-09T00:24:14.537Z,58.25
2016-07-09T00:25:14.521Z,58.35
2016-07-09T00:26:14.549Z,58.25
2016-07-09T00:27:14.535Z,58.25
2016-07-09T00:28:14.577Z,58.15
2016-07-09T00:29:14.563Z,58.15
2016-07-09T00:30:14.584Z,58.15
2016-07-09T00:31:14.574Z,58.35
2016-07-09T00:32:14.610Z,58.25
2016-07-09T00:33:14.610Z,58.25
2016-07-09T00:34:14.599Z,58.15
2016-07-09T00:35:14.643Z,58.25
2016-07-09T00:36:14.616Z,58.15
2016-07-09T00:37:14.649Z,58.25
2016-07-09T00:38:14.670Z,58.25
2016-07-09T00:39:14.680Z,58.25
2016-07-09T00:40:14.658Z,58.06
2016-07-09T00:41:14.674Z,58.25
2016-07-09T00:42:14.682Z,58.25
2016-07-09T00:43:14.698Z,58.25
2016-07-09T00:44:14.699Z,58.15
2016-07-09T00:45:15.350Z,58.25
2016-07-09T00:46:14.726Z,58.15
2016-07-09T00:47:15.348Z,58.15
2016-07-09T00:48:14.728Z,58.06
2016-07-09T00:49:14.765Z,58.15
2016-07-09T00:50:14.759Z,58.25
2016-07-09T00:51:14.781Z,58.25
2016-07-09T00:52:14.801Z,58.15
2016-07-09T00:53:14.818Z,58.25
2016-07-09T00:54:14.794Z,58.06
2016-07-09T00:55:14.819Z,58.15
2016-07-09T00:56:14.809Z,58.35
2016-07-09T00:57:14.839Z,58.35
2016-07-09T00:58:14.853Z,58.35
2016-07-09T00:59:14.860Z,58.25
2016-07-09T01:00:14.863Z,58.25
2016-07-09T01:01:14.882Z,58.15
2016-07-09T01:02:14.882Z,58.15
2016-07-09T01:03:14.904Z,58.25
2016-07-09T01:04:14.899Z,58.25
2016-07-09T01:05:14.893Z,58.35
2016-07-09T01:06:14.927Z,58.15
2016-07-09T01:07:14.940Z,58.15
2016-07-09T01:08:14.948Z,58.25
2016-07-09T01:09:14.937Z,58.25
2016-07-09T01:10:14.953Z,58.25
2016-07-09T01:11:14.943Z,58.25
2016-07-09T01:12:14.986Z,58.35
2016-07-09T01:13:14.984Z,58.35
2016-07-09T01:14:15.004Z,58.25
2016-07-09T01:15:15.016Z,58.25
2016-07-09T01:16:15.019Z,58.15
2016-07-09T01:17:15.026Z,58.06
2016-07-09T01:18:15.030Z,58.35
2016-07-09T01:19:15.063Z,58.15
2016-07-09T01:20:15.062Z,58.35
2016-07-09T01:21:15.066Z,58.25
2016-07-09T01:22:15.056Z,58.25
2016-07-09T01:23:15.092Z,58.25
2016-07-09T01:24:15.085Z,58.25
2016-07-09T01:25:15.081Z,58.25
2016-07-09T01:26:15.093Z,58.25
2016-07-09T01:27:15.124Z,58.25
2016-07-09T01:28:15.117Z,58.25
2016-07-09T01:29:15.129Z,58.15
2016-07-09T01:30:15.122Z,58.25
2016-07-09T01:31:15.142Z,58.15
2016-07-09T01:32:15.147Z,58.06
2016-07-09T01:33:15.187Z,58.06
2016-07-09T01:34:15.159Z,58.15
2016-07-09T01:35:15.165Z,58.06
2016-07-09T01:36:15.176Z,58.15
2016-07-09T01:37:15.214Z,58.06
2016-07-09T01:38:15.203Z,58.06
2016-07-09T01:39:15.231Z,58.15
2016-07-09T01:40:15.220Z,58.15
2016-07-09T01:41:15.233Z,58.15
2016-07-09T01:42:15.261Z,58.15
2016-07-09T01:43:15.267Z,58.15
2016-07-09T01:44:15.287Z,58.25
2016-07-09T01:45:15.291Z,58.15
2016-07-09T01:46:15.261Z,58.15
2016-07-09T01:47:15.285Z,58.15
2016-07-09T01:48:15.286Z,58.25
2016-07-09T01:49:15.314Z,58.25
2016-07-09T01:50:15.326Z,58.15
2016-07-09T01:51:15.339Z,58.15
2016-07-09T01:52:15.353Z,58.35
2016-07-09T01:53:15.365Z,58.25
2016-07-09T01:54:15.376Z,58.25
2016-07-09T01:55:15.358Z,58.15
2016-07-09T01:56:15.371Z,58.15
2016-07-09T01:57:15.403Z,58.15
2016-07-09T01:58:15.377Z,58.35
2016-07-09T01:59:15.401Z,58.25
2016-07-09T02:00:15.417Z,58.25
2016-07-09T02:01:15.419Z,58.25
2016-07-09T02:02:15.445Z,58.15
2016-07-09T02:03:15.446Z,58.15
2016-07-09T02:04:15.444Z,58.15
2016-07-09T02:05:15.463Z,58.25
2016-07-09T02:06:15.454Z,58.15
2016-07-09T02:07:15.464Z,58.15
2016-07-09T02:08:15.495Z,58.35
2016-07-09T02:09:15.481Z,58.35
2016-07-09T02:10:15.485Z,58.35
2016-07-09T02:11:15.522Z,58.25
2016-07-09T02:12:15.509Z,58.15
2016-07-09T02:13:15.535Z,58.25
2016-07-09T02:14:15.537Z,58.15
2016-07-09T02:15:15.549Z,58.15
2016-07-09T02:16:15.566Z,58.15
2016-07-09T02:17:15.579Z,58.15
2016-07-09T02:18:15.574Z,58.15
2016-07-09T02:19:15.587Z,58.25
2016-07-09T02:20:15.590Z,58.25
2016-07-09T02:21:15.601Z,58.15
2016-07-09T02:22:15.631Z,58.15
2016-07-09T02:23:15.631Z,58.06
2016-07-09T02:24:15.622Z,58.25
2016-07-09T02:25:15.650Z,58.06
2016-07-09T02:26:15.656Z,58.15
2016-07-09T02:27:15.651Z,58.15
2016-07-09T02:28:15.666Z,58.06
2016-07-09T02:29:15.681Z,58.15
2016-07-09T02:30:15.678Z,58.15
2016-07-09T02:31:15.685Z,58.25
2016-07-09T02:32:15.717Z,58.15
2016-07-09T02:33:15.720Z,58.15
2016-07-09T02:34:15.708Z,58.15
2016-07-09T02:35:15.730Z,58.25
2016-07-09T02:36:15.775Z,58.25
2016-07-09T02:37:15.771Z,58.15
2016-07-09T02:38:15.757Z,58.06
2016-07-09T02:39:15.786Z,58.15
2016-07-09T02:40:15.800Z,58.15
2016-07-09T02:41:15.789Z,58.15
2016-07-09T02:42:15.794Z,58.15
2016-07-09T02:43:15.814Z,58.15
2016-07-09T02:44:15.833Z,58.25
2016-07-09T02:45:15.819Z,58.06
2016-07-09T02:46:15.843Z,58.15
2016-07-09T02:47:15.844Z,58.25
2016-07-09T02:48:15.858Z,58.15
2016-07-09T02:49:15.860Z,58.06
2016-07-09T02:50:15.871Z,58.15
2016-07-09T02:51:15.896Z,58.25
2016-07-09T02:52:15.907Z,58.25
2016-07-09T02:53:15.910Z,58.25
2016-07-09T02:54:15.926Z,58.15
2016-07-09T02:55:15.939Z,58.15
2016-07-09T02:56:15.928Z,58.15
2016-07-09T02:57:15.938Z,58.25
2016-07-09T02:58:15.948Z,58.15
2016-07-09T02:59:15.970Z,58.15
2016-07-09T03:00:15.951Z,58.15
2016-07-09T03:01:15.975Z,58.15
2016-07-09T03:02:15.976Z,58.15
2016-07-09T03:03:16.030Z,58.15
2016-07-09T03:04:16.018Z,58.25
2016-07-09T03:05:16.018Z,58.15
2016-07-09T03:06:16.038Z,58.15
2016-07-09T03:07:16.017Z,58.35
2016-07-09T03:08:16.031Z,58.15
2016-07-09T03:09:16.039Z,58.25
2016-07-09T03:10:16.051Z,58.15
2016-07-09T03:11:16.695Z,58.15
2016-07-09T03:12:16.068Z,58.25
2016-07-09T03:13:16.102Z,58.35
2016-07-09T03:14:16.102Z,58.15
2016-07-09T03:15:16.084Z,58.15
2016-07-09T03:16:16.130Z,58.25
2016-07-09T03:17:16.111Z,58.15
2016-07-09T03:18:16.145Z,58.25
2016-07-09T03:19:16.737Z,58.25
2016-07-09T03:20:16.142Z,58.25
2016-07-09T03:21:16.175Z,58.15
2016-07-09T03:22:16.171Z,58.25
2016-07-09T03:23:16.208Z,58.25
2016-07-09T03:24:16.169Z,57.77
2016-07-09T03:25:16.212Z,58.25
2016-07-09T03:26:16.199Z,57.77
2016-07-09T03:27:16.218Z,58.35
2016-07-09T03:28:16.227Z,58.15
2016-07-09T03:29:16.238Z,58.15
2016-07-09T03:30:16.235Z,58.25
2016-07-09T03:31:16.232Z,58.06
2016-07-09T03:32:16.248Z,58.25
2016-07-09T03:33:16.279Z,58.15
2016-07-09T03:34:16.275Z,58.25
2016-07-09T03:35:16.266Z,58.25
2016-07-09T03:36:16.363Z,57.87
2016-07-09T03:37:16.305Z,58.25
2016-07-09T03:38:16.301Z,58.25
2016-07-09T03:39:16.331Z,58.25
2016-07-09T03:40:16.328Z,58.15
2016-07-09T03:41:16.339Z,58.25
2016-07-09T03:42:16.345Z,58.35
2016-07-09T03:43:16.378Z,58.35
2016-07-09T03:44:16.373Z,58.15
2016-07-09T03:45:16.400Z,58.15
2016-07-09T03:46:16.396Z,58.06
2016-07-09T03:47:16.414Z,58.25
2016-07-09T03:48:16.424Z,58.35
2016-07-09T03:49:16.402Z,58.15
2016-07-09T03:50:16.442Z,58.15
2016-07-09T03:51:16.453Z,58.15
2016-07-09T03:52:16.465Z,58.25
2016-07-09T03:53:16.469Z,58.35
2016-07-09T03:54:16.466Z,58.25
2016-07-09T03:55:16.486Z,58.25
2016-07-09T03:56:16.475Z,58.35
2016-07-09T03:57:16.474Z,58.35
2016-07-09T03:58:16.486Z,58.15
2016-07-09T03:59:17.137Z,58.35
2016-07-09T04:00:16.533Z,58.25
2016-07-09T04:01:16.549Z,58.25
2016-07-09T04:02:16.529Z,58.25
2016-07-09T04:03:16.549Z,58.25
2016-07-09T04:04:16.557Z,58.25
2016-07-09T04:05:16.568Z,58.25
2016-07-09T04:06:16.587Z,58.25
2016-07-09T04:07:16.588Z,58.25
2016-07-09T04:08:16.597Z,58.15
2016-07-09T04:09:16.584Z,58.25
2016-07-09T04:10:16.606Z,58.15
2016-07-09T04:11:16.630Z,58.25
2016-07-09T04:12:16.643Z,58.15
2016-07-09T04:13:16.620Z,58.25
2016-07-09T04:14:16.658Z,58.25
2016-07-09T04:15:16.652Z,58.15
2016-07-09T04:16:16.648Z,58.15
2016-07-09T04:17:16.679Z,58.25
2016-07-09T04:18:16.663Z,58.35
2016-07-09T04:19:16.706Z,58.25
2016-07-09T04:20:16.688Z,58.15
2016-07-09T04:21:16.702Z,58.15
2016-07-09T04:22:16.718Z,58.15
2016-07-09T04:23:16.716Z,58.15
2016-07-09T04:24:16.756Z,58.15
2016-07-09T04:25:16.740Z,58.25
2016-07-09T04:26:16.771Z,58.15
2016-07-09T04:27:16.763Z,58.15
2016-07-09T04:28:16.756Z,58.15
2016-07-09T04:29:16.777Z,58.25
2016-07-09T04:30:16.806Z,58.25
2016-07-09T04:31:16.784Z,58.25
2016-07-09T04:32:16.797Z,58.15
2016-07-09T04:33:16.837Z,58.25
2016-07-09T04:34:16.844Z,58.25
2016-07-09T04:35:16.855Z,58.15
2016-07-09T04:36:16.842Z,58.35
2016-07-09T04:37:16.861Z,58.15
2016-07-09T04:38:16.882Z,58.25
2016-07-09T04:39:16.869Z,58.15
2016-07-09T04:40:16.877Z,58.15
2016-07-09T04:41:16.897Z,58.25
2016-07-09T04:42:16.907Z,58.25
2016-07-09T04:43:16.917Z,58.25
2016-07-09T04:44:16.903Z,58.35
2016-07-09T04:45:16.916Z,58.15
2016-07-09T04:46:16.934Z,58.15
2016-07-09T04:47:17.586Z,58.15
2016-07-09T04:48:16.946Z,58.25
2016-07-09T04:49:16.951Z,58.15
2016-07-09T04:50:16.956Z,58.25
2016-07-09T04:51:17.008Z,58.15
2016-07-09T04:52:17.007Z,58.15
2016-07-09T04:53:16.982Z,58.25
2016-07-09T04:54:16.993Z,58.25
2016-07-09T04:55:17.008Z,58.15
2016-07-09T04:56:17.033Z,58.25
2016-07-09T04:57:17.034Z,58.15
2016-07-09T04:58:17.051Z,58.25
2016-07-09T04:59:17.079Z,58.25
2016-07-09T05:00:17.062Z,58.06
2016-07-09T05:01:17.097Z,58.15
2016-07-09T05:02:17.070Z,58.15
2016-07-09T05:03:17.090Z,58.25
2016-07-09T05:04:17.098Z,58.15
2016-07-09T05:05:17.116Z,57.96
2016-07-09T05:06:17.132Z,58.35
2016-07-09T05:07:17.145Z,58.25
2016-07-09T05:08:17.138Z,58.15
2016-07-09T05:09:17.167Z,58.25
2016-07-09T05:10:17.161Z,58.25
2016-07-09T05:11:17.165Z,58.15
2016-07-09T05:12:17.180Z,58.25
2016-07-09T05:13:17.194Z,58.35
2016-07-09T05:14:17.178Z,58.35
2016-07-09T05:15:17.210Z,58.25
2016-07-09T05:16:17.209Z,58.25
2016-07-09T05:17:17.843Z,58.15
2016-07-09T05:18:17.256Z,57.77
2016-07-09T05:19:17.236Z,58.35
2016-07-09T05:20:17.275Z,58.25
2016-07-09T05:21:17.281Z,57.87
2016-07-09T05:22:17.264Z,57.87
2016-07-09T05:23:17.273Z,57.87
2016-07-09T05:24:17.922Z,57.87
2016-07-09T05:25:17.301Z,57.96
2016-07-09T05:26:17.329Z,57.77
2016-07-09T05:27:17.330Z,57.77
2016-07-09T05:28:17.332Z,57.87
2016-07-09T05:29:17.350Z,57.77
2016-07-09T05:30:17.322Z,57.77
2016-07-09T05:31:17.338Z,57.96
2016-07-09T05:32:17.366Z,57.96
2016-07-09T05:33:17.390Z,57.96
2016-07-09T05:34:17.361Z,57.77
2016-07-09T05:35:17.383Z,57.87
2016-07-09T05:36:17.502Z,58.06
2016-07-09T05:37:17.399Z,57.87
2016-07-09T05:38:17.402Z,57.87
2016-07-09T05:39:17.440Z,57.96
2016-07-09T05:40:17.417Z,57.77
2016-07-09T05:41:17.443Z,57.87
2016-07-09T05:42:17.477Z,57.77
2016-07-09T05:43:17.477Z,57.67
2016-07-09T05:44:17.484Z,57.67
2016-07-09T05:45:17.493Z,57.67
2016-07-09T05:46:17.493Z,57.77
2016-07-09T05:47:17.517Z,58.06
2016-07-09T05:48:17.525Z,57.96
2016-07-09T05:49:17.537Z,58.06
2016-07-09T05:50:17.522Z,57.77
2016-07-09T05:51:17.526Z,57.77
2016-07-09T05:52:17.529Z,57.48
2016-07-09T05:53:17.547Z,57.67
2016-07-09T05:54:17.556Z,57.48
2016-07-09T05:55:17.569Z,57.57
2016-07-09T05:56:17.598Z,57.77
2016-07-09T05:57:17.584Z,57.67
2016-07-09T05:58:17.616Z,57.77
2016-07-09T05:59:17.597Z,57.77
2016-07-09T06:00:17.611Z,57.67
2016-07-09T06:01:17.611Z,57.77
2016-07-09T06:02:17.649Z,57.87
2016-07-09T06:03:17.651Z,57.77
2016-07-09T06:04:17.658Z,57.48
2016-07-09T06:05:17.657Z,57.67
2016-07-09T06:06:17.672Z,57.77
2016-07-09T06:07:17.667Z,57.67
2016-07-09T06:08:17.692Z,57.87
2016-07-09T06:09:17.718Z,57.77
2016-07-09T06:10:17.693Z,57.77
2016-07-09T06:11:17.736Z,57.77
2016-07-09T06:12:18.350Z,57.67
2016-07-09T06:13:17.733Z,57.77
2016-07-09T06:14:17.738Z,57.67
2016-07-09T06:15:17.771Z,57.57
2016-07-09T06:16:17.759Z,57.48
2016-07-09T06:17:17.766Z,57.09
2016-07-09T06:18:17.799Z,57.57
2016-07-09T06:19:17.805Z,57.57
2016-07-09T06:20:17.789Z,57.48
2016-07-09T06:21:17.805Z,57.48
2016-07-09T06:22:17.835Z,57.38
2016-07-09T06:23:17.827Z,57.48
2016-07-09T06:24:17.821Z,57.57
2016-07-09T06:25:17.836Z,57.57
2016-07-09T06:26:17.849Z,57.38
2016-07-09T06:27:17.867Z,57.48
2016-07-09T06:28:17.877Z,57.19
2016-07-09T06:29:17.883Z,57.29
2016-07-09T06:30:17.876Z,57.29
2016-07-09T06:31:17.883Z,57.29
2016-07-09T06:32:17.924Z,57.38
2016-07-09T06:33:17.901Z,57.29
2016-07-09T06:34:17.947Z,57.67
2016-07-09T06:35:17.955Z,57.38
2016-07-09T06:36:17.953Z,57.48
2016-07-09T06:37:17.946Z,57.09
2016-07-09T06:38:17.967Z,57.67
2016-07-09T06:39:17.987Z,57.29
2016-07-09T06:40:18.004Z,56.99
2016-07-09T06:41:18.010Z,57.29
2016-07-09T06:42:18.002Z,57.29
2016-07-09T06:43:18.029Z,57.57
2016-07-09T06:44:18.030Z,57.38
2016-07-09T06:45:18.036Z,57.29
2016-07-09T06:46:18.048Z,57.38
2016-07-09T06:47:18.055Z,57.29
2016-07-09T06:48:18.057Z,57.29
2016-07-09T06:49:18.049Z,57.38
2016-07-09T06:50:18.064Z,57.29
2016-07-09T06:51:18.091Z,57.29
2016-07-09T06:52:18.103Z,57.29
2016-07-09T06:53:18.114Z,57.57
2016-07-09T06:54:18.105Z,57.29
2016-07-09T06:55:18.124Z,57.48
2016-07-09T06:56:18.110Z,57.38
2016-07-09T06:57:18.128Z,57.38
2016-07-09T06:58:18.142Z,57.48
2016-07-09T06:59:18.162Z,57.41
2016-07-09T07:00:18.159Z,57.19
2016-07-09T07:01:18.811Z,57.21
2016-07-09T07:02:18.174Z,57.21
2016-07-09T07:03:18.192Z,57.31
2016-07-09T07:04:18.216Z,57.12
2016-07-09T07:05:18.227Z,57.12
2016-07-09T07:06:18.214Z,57.21
2016-07-09T07:07:18.210Z,57.31
2016-07-09T07:08:18.223Z,57.12
2016-07-09T07:09:18.264Z,57.12
2016-07-09T07:10:18.240Z,57.31
2016-07-09T07:11:18.250Z,57.21
2016-07-09T07:12:18.292Z,57.31
2016-07-09T07:13:18.291Z,57.19
2016-07-09T07:14:18.309Z,57.12
2016-07-09T07:15:18.493Z,57.12
2016-07-09T07:16:18.326Z,57.12
2016-07-09T07:17:18.298Z,57.09
2016-07-09T07:18:18.325Z,57.38
2016-07-09T07:19:18.347Z,57.41
2016-07-09T07:20:18.330Z,57.03
2016-07-09T07:21:18.340Z,57.41
2016-07-09T07:22:18.354Z,57.03
2016-07-09T07:23:18.364Z,57.21
2016-07-09T07:24:18.366Z,57.03
2016-07-09T07:25:18.381Z,57.21
2016-07-09T07:26:18.409Z,57.21
2016-07-09T07:27:18.415Z,57.03
2016-07-09T07:28:18.419Z,57.12
2016-07-09T07:29:18.423Z,57.31
2016-07-09T07:30:18.435Z,57.12
2016-07-09T07:31:18.437Z,57.03
2016-07-09T07:32:18.453Z,57.03
2016-07-09T07:33:18.468Z,57.12
2016-07-09T07:34:18.471Z,57.21
2016-07-09T07:35:18.483Z,57.21
2016-07-09T07:36:18.507Z,57.12
2016-07-09T07:37:18.510Z,57.12
2016-07-09T07:38:18.526Z,57.03
2016-07-09T07:39:18.516Z,57.12
2016-07-09T07:40:18.523Z,56.93
2016-07-09T07:41:18.532Z,57.03
2016-07-09T07:42:18.545Z,57.03
2016-07-09T07:43:18.580Z,57.03
2016-07-09T07:44:18.568Z,56.93
2016-07-09T07:45:18.596Z,57.03
2016-07-09T07:46:18.583Z,56.83
2016-07-09T07:47:18.576Z,56.73
2016-07-09T07:48:18.620Z,56.73
2016-07-09T07:49:18.628Z,56.83
2016-07-09T07:50:18.606Z,56.83
2016-07-09T07:51:18.649Z,56.73
2016-07-09T07:52:18.645Z,56.73
2016-07-09T07:53:18.632Z,56.83
2016-07-09T07:54:18.666Z,56.73
2016-07-09T07:55:18.665Z,56.93
2016-07-09T07:56:18.665Z,56.73
2016-07-09T07:57:18.703Z,56.63
2016-07-09T07:58:18.679Z,56.93
2016-07-09T07:59:18.711Z,56.54
2016-07-09T08:00:18.730Z,56.45
2016-07-09T08:01:18.706Z,56.63
2016-07-09T08:02:18.751Z,56.57
2016-07-09T08:03:18.727Z,56.83
2016-07-09T08:04:18.758Z,56.83
2016-07-09T08:05:18.743Z,56.83
2016-07-09T08:06:18.752Z,56.86
2016-07-09T08:07:18.785Z,56.83
2016-07-09T08:08:18.770Z,56.83
2016-07-09T08:09:18.809Z,56.86
2016-07-09T08:10:18.821Z,56.95
2016-07-09T08:11:18.820Z,56.83
2016-07-09T08:12:18.838Z,56.93
2016-07-09T08:13:18.827Z,56.54
2016-07-09T08:14:18.849Z,56.73
2016-07-09T08:15:18.870Z,56.63
2016-07-09T08:16:18.845Z,56.63
2016-07-09T08:17:18.853Z,56.57
2016-07-09T08:18:18.876Z,56.15
2016-07-09T08:19:18.894Z,56.37
2016-07-09T08:20:18.889Z,56.47
2016-07-09T08:21:19.524Z,56.54
2016-07-09T08:22:18.904Z,56.67
2016-07-09T08:23:18.945Z,56.67
2016-07-09T08:24:18.922Z,56.37
2016-07-09T08:25:18.925Z,56.57
2016-07-09T08:26:18.957Z,56.57
2016-07-09T08:27:18.956Z,56.47
2016-07-09T08:28:18.984Z,56.47
2016-07-09T08:29:18.977Z,56.47
2016-07-09T08:30:19.001Z,56.28
2016-07-09T08:31:19.019Z,56.28
2016-07-09T08:32:19.027Z,56.37
2016-07-09T08:33:19.039Z,56.47
2016-07-09T08:34:19.027Z,56.37
2016-07-09T08:35:19.045Z,56.47
2016-07-09T08:36:19.061Z,56.18
2016-07-09T08:37:19.070Z,56.47
2016-07-09T08:38:19.059Z,56.28
2016-07-09T08:39:19.073Z,56.28
2016-07-09T08:40:19.066Z,56.37
2016-07-09T08:41:19.110Z,56.47
2016-07-09T08:42:19.083Z,56.47
2016-07-09T08:43:19.743Z,56.28
2016-07-09T08:44:19.114Z,56.37
2016-07-09T08:45:19.755Z,56.28
2016-07-09T08:46:19.132Z,56.47
2016-07-09T08:47:19.160Z,56.57
2016-07-09T08:48:19.171Z,56.47
2016-07-09T08:49:19.182Z,56.28
2016-07-09T08:50:19.156Z,56.47
2016-07-09T08:51:19.173Z,56.76
2016-07-09T08:52:19.208Z,56.37
2016-07-09T08:53:19.201Z,56.28
2016-07-09T08:54:19.214Z,55.99
2016-07-09T08:55:19.223Z,56.02
2016-07-09T08:56:19.212Z,55.99
2016-07-09T08:57:19.256Z,56.02
2016-07-09T08:58:19.263Z,56.09
2016-07-09T08:59:19.245Z,55.92
2016-07-09T09:00:19.258Z,55.99
2016-07-09T09:01:19.295Z,55.92
2016-07-09T09:02:19.543Z,55.89
2016-07-09T09:03:19.313Z,55.7
2016-07-09T09:04:19.318Z,56.09
2016-07-09T09:05:19.297Z,56.02
2016-07-09T09:06:19.314Z,55.73
2016-07-09T09:07:19.345Z,55.63
2016-07-09T09:08:19.360Z,55.63
2016-07-09T09:09:19.337Z,55.73
2016-07-09T09:10:19.360Z,55.82
2016-07-09T09:11:19.994Z,55.82
2016-07-09T09:12:19.384Z,55.63
2016-07-09T09:13:19.405Z,55.53
2016-07-09T09:14:19.383Z,55.92
2016-07-09T09:15:19.417Z,55.92
2016-07-09T09:16:19.401Z,55.92
2016-07-09T09:17:19.433Z,55.82
2016-07-09T09:18:19.442Z,55.92
2016-07-09T09:19:19.431Z,55.63
2016-07-09T09:20:19.470Z,55.82
2016-07-09T09:21:19.457Z,55.73
2016-07-09T09:22:19.459Z,55.73
2016-07-09T09:23:19.491Z,55.73
2016-07-09T09:24:19.506Z,55.63
2016-07-09T09:25:19.516Z,55.53
2016-07-09T09:26:19.494Z,55.53
2016-07-09T09:27:19.499Z,55.43
2016-07-09T09:28:19.533Z,55.53
2016-07-09T09:29:19.535Z,55.63
2016-07-09T09:30:19.533Z,55.43
2016-07-09T09:31:19.541Z,55.43
2016-07-09T09:32:19.581Z,55.34
2016-07-09T09:33:20.194Z,55.43
2016-07-09T09:34:19.570Z,55.43
2016-07-09T09:35:19.582Z,55.43
2016-07-09T09:36:19.624Z,55.34
2016-07-09T09:37:19.623Z,55.34
2016-07-09T09:38:19.628Z,55.43
2016-07-09T09:39:19.621Z,55.34
2016-07-09T09:40:19.647Z,55.34
2016-07-09T09:41:20.240Z,55.34
2016-07-09T09:42:19.655Z,55.24
2016-07-09T09:43:19.654Z,55.15
2016-07-09T09:44:19.659Z,55.15
2016-07-09T09:45:19.703Z,55.24
2016-07-09T09:46:19.705Z,55.15
2016-07-09T09:47:19.695Z,55.05
2016-07-09T09:48:19.701Z,55.05
2016-07-09T09:49:19.729Z,55.15
2016-07-09T09:50:19.715Z,55.24
2016-07-09T09:51:19.741Z,55.24
2016-07-09T09:52:19.747Z,55.15
2016-07-09T09:53:19.781Z,55.24
2016-07-09T09:54:19.811Z,55.53
2016-07-09T09:55:19.781Z,55.24
2016-07-09T09:56:19.795Z,55.15
2016-07-09T09:57:19.806Z,55.05
2016-07-09T09:58:19.825Z,54.95
2016-07-09T09:59:19.812Z,54.95
2016-07-09T10:00:19.846Z,55.17
2016-07-09T10:01:19.838Z,55.15
2016-07-09T10:02:19.841Z,55.17
2016-07-09T10:03:19.870Z,55.07
2016-07-09T10:04:19.883Z,55.17
2016-07-09T10:05:19.886Z,55.07
2016-07-09T10:06:19.874Z,55.07
2016-07-09T10:07:19.909Z,54.98
2016-07-09T10:08:19.892Z,55.17
2016-07-09T10:09:19.901Z,54.85
2016-07-09T10:10:19.916Z,55.07
2016-07-09T10:11:19.950Z,55.07
2016-07-09T10:12:19.937Z,54.98
2016-07-09T10:13:19.958Z,54.98
2016-07-09T10:14:19.974Z,55.07
2016-07-09T10:15:19.978Z,55.05
2016-07-09T10:16:19.990Z,55.07
2016-07-09T10:17:20.004Z,55.17
2016-07-09T10:18:20.001Z,55.07
2016-07-09T10:19:20.009Z,54.98
2016-07-09T10:20:20.008Z,55.17
2016-07-09T10:21:20.012Z,55.36
2016-07-09T10:22:20.049Z,55.27
2016-07-09T10:23:20.053Z,54.98
2016-07-09T10:24:20.059Z,55.07
2016-07-09T10:25:20.690Z,55.27
2016-07-09T10:26:20.057Z,54.98
2016-07-09T10:27:20.097Z,55.27
2016-07-09T10:28:20.096Z,55.27
2016-07-09T10:29:20.108Z,55.17
2016-07-09T10:30:20.116Z,55.27
2016-07-09T10:31:20.137Z,55.07
2016-07-09T10:32:20.143Z,54.98
2016-07-09T10:33:20.123Z,55.27
2016-07-09T10:34:20.169Z,55.07
2016-07-09T10:35:20.160Z,54.98
2016-07-09T10:36:20.151Z,54.98
2016-07-09T10:37:20.197Z,54.98
2016-07-09T10:38:20.188Z,55.07
2016-07-09T10:39:20.205Z,54.98
2016-07-09T10:40:20.202Z,54.98
2016-07-09T10:41:20.251Z,54.98
2016-07-09T10:42:20.214Z,54.88
2016-07-09T10:43:20.251Z,54.88
2016-07-09T10:44:20.268Z,55.17
2016-07-09T10:45:20.270Z,55.07
2016-07-09T10:46:20.278Z,54.88
2016-07-09T10:47:20.287Z,54.88
2016-07-09T10:48:20.260Z,54.88
2016-07-09T10:49:20.318Z,54.88
2016-07-09T10:50:20.321Z,54.91
2016-07-09T10:51:20.289Z,54.98
2016-07-09T10:52:20.334Z,54.98
2016-07-09T10:53:20.347Z,54.91
2016-07-09T10:54:20.338Z,54.91
2016-07-09T10:55:20.336Z,54.81
2016-07-09T10:56:20.368Z,55.2
2016-07-09T10:57:20.362Z,54.88
2016-07-09T10:58:20.389Z,55.17
2016-07-09T10:59:20.379Z,55.07
2016-07-09T11:00:20.407Z,55.17
2016-07-09T11:01:20.381Z,55.2
2016-07-09T11:02:20.421Z,54.98
2016-07-09T11:03:20.413Z,54.88
2016-07-09T11:04:20.411Z,55.1
2016-07-09T11:05:20.456Z,55.2
2016-07-09T11:06:20.450Z,54.98
2016-07-09T11:07:20.469Z,55.1
2016-07-09T11:08:20.471Z,55
2016-07-09T11:09:20.477Z,55.1
2016-07-09T11:10:20.496Z,55.1
2016-07-09T11:11:21.143Z,54.81
2016-07-09T11:12:20.512Z,54.81
2016-07-09T11:13:21.119Z,54.91
2016-07-09T11:14:21.107Z,55.2
2016-07-09T11:15:21.152Z,54.91
2016-07-09T11:16:20.551Z,54.62
2016-07-09T11:17:21.137Z,54.52
2016-07-09T11:18:20.578Z,54.91
2016-07-09T11:19:21.165Z,55.2
2016-07-09T11:20:20.589Z,55
2016-07-09T11:21:20.606Z,54.88
2016-07-09T11:22:20.620Z,55.1
2016-07-09T11:23:20.606Z,54.91
2016-07-09T11:24:20.613Z,55.07
2016-07-09T11:25:20.642Z,55.1
2016-07-09T11:26:20.622Z,54.71
2016-07-09T11:27:20.650Z,54.62
2016-07-09T11:28:20.663Z,54.71
2016-07-09T11:29:20.660Z,54.71
2016-07-09T11:30:20.667Z,54.52
2016-07-09T11:31:20.697Z,55.1
2016-07-09T11:32:20.704Z,55.1
2016-07-09T11:33:20.721Z,55.2
2016-07-09T11:34:20.705Z,55.1
2016-07-09T11:35:20.719Z,54.81
2016-07-09T11:36:20.740Z,54.52
2016-07-09T11:37:20.782Z,54.33
2016-07-09T11:38:20.774Z,54.43
2016-07-09T11:39:20.780Z,54.33
2016-07-09T11:40:20.791Z,54.52
2016-07-09T11:41:20.788Z,54.43
2016-07-09T11:42:20.787Z,54.33
2016-07-09T11:43:20.787Z,54.23
2016-07-09T11:44:20.828Z,54.33
2016-07-09T11:45:20.804Z,54.33
2016-07-09T11:46:20.824Z,54.13
2016-07-09T11:47:20.824Z,54.13
2016-07-09T11:48:20.849Z,54.13
2016-07-09T11:49:20.843Z,54.33
2016-07-09T11:50:20.851Z,54.03
2016-07-09T11:51:20.899Z,54.13
2016-07-09T11:52:20.907Z,54.33
2016-07-09T11:53:20.882Z,54.26
2016-07-09T11:54:20.891Z,54.33
2016-07-09T11:55:20.935Z,54.13
2016-07-09T11:56:20.910Z,54.13
2016-07-09T11:57:20.953Z,54.16
2016-07-09T11:58:20.933Z,54.45
2016-07-09T11:59:20.972Z,54.13
2016-07-09T12:00:20.983Z,53.87
2016-07-09T12:01:20.988Z,54.06
2016-07-09T12:02:20.976Z,53.67
2016-07-09T12:03:21.003Z,53.97
2016-07-09T12:04:20.998Z,53.97
2016-07-09T12:05:21.019Z,53.77
2016-07-09T12:06:21.031Z,54.06
2016-07-09T12:07:21.035Z,53.87
2016-07-09T12:08:21.035Z,53.87
2016-07-09T12:09:21.048Z,53.87
2016-07-09T12:10:21.080Z,53.87
2016-07-09T12:11:21.067Z,54.06
2016-07-09T12:12:21.112Z,53.87
2016-07-09T12:13:21.108Z,53.67
2016-07-09T12:14:21.084Z,53.67
2016-07-09T12:15:21.093Z,53.77
2016-07-09T12:16:21.116Z,53.77
2016-07-09T12:17:21.117Z,53.97
2016-07-09T12:18:21.147Z,54.06
2016-07-09T12:19:21.146Z,54.16
2016-07-09T12:20:21.179Z,54.26
2016-07-09T12:21:21.151Z,54.35
2016-07-09T12:22:21.187Z,54.28
2016-07-09T12:23:21.175Z,54.26
2016-07-09T12:24:21.204Z,54.09
2016-07-09T12:25:21.215Z,53.97
2016-07-09T12:26:21.213Z,54.06
2016-07-09T12:27:21.234Z,54.55
2016-07-09T12:28:21.280Z,54.06
2016-07-09T12:29:21.262Z,53.77
2016-07-09T12:30:21.262Z,54.55
2016-07-09T12:31:21.275Z,53.87
2016-07-09T12:32:21.284Z,53.77
2016-07-09T12:33:21.302Z,54.06
2016-07-09T12:34:21.311Z,53.12
2016-07-09T12:35:21.314Z,53.22
2016-07-09T12:36:21.331Z,54.38
2016-07-09T12:37:21.360Z,53.7
2016-07-09T12:38:21.331Z,54.09
2016-07-09T12:39:21.381Z,53.51
2016-07-09T12:40:21.355Z,54.38
2016-07-09T12:41:21.378Z,53.89
2016-07-09T12:42:21.369Z,53.97
2016-07-09T12:43:21.410Z,53.7
2016-07-09T12:44:21.393Z,53.41
2016-07-09T12:45:22.017Z,52.93
2016-07-09T12:46:21.410Z,53.41
2016-07-09T12:47:21.441Z,53.61
2016-07-09T12:48:21.429Z,53.61
2016-07-09T12:49:21.448Z,53.22
2016-07-09T12:50:21.463Z,53.7
2016-07-09T12:51:21.451Z,53.61
2016-07-09T12:52:21.459Z,53.7
2016-07-09T12:53:21.498Z,53.41